createdAt,value
2022-07-26T00:01:47.841Z,1.33
2022-07-26T00:04:15.342Z,2.10
2022-07-26T00:06:42.864Z,1.98
2022-07-26T00:09:11.762Z,2.25
2022-07-26T00:11:39.377Z,2.72
2022-07-26T00:14:08.076Z,2.40
2022-07-26T00:16:36.406Z,3.35
2022-07-26T00:19:05.179Z,1.83
2022-07-26T00:21:33.204Z,1.85
2022-07-26T00:24:00.845Z,2.38
2022-07-26T00:26:28.234Z,2.55
2022-07-26T00:28:55.678Z,2.45
2022-07-26T00:31:23.230Z,2.00
2022-07-26T00:33:56.984Z,1.95
2022-07-26T00:36:26.134Z,1.75
2022-07-26T00:38:53.557Z,1.95
2022-07-26T00:41:20.853Z,2.20
2022-07-26T00:43:59.044Z,2.03
2022-07-26T00:46:31.939Z,1.98
2022-07-26T00:48:59.429Z,2.47
2022-07-26T00:51:53.294Z,2.13
2022-07-26T00:54:21.292Z,1.83
2022-07-26T00:56:55.170Z,2.08
2022-07-26T00:59:22.743Z,2.22
2022-07-26T01:01:50.365Z,2.60
2022-07-26T01:04:17.761Z,2.70
2022-07-26T01:06:45.303Z,1.77
2022-07-26T01:09:17.037Z,2.25
2022-07-26T01:11:47.608Z,2.28
2022-07-26T01:14:15.187Z,2.38
2022-07-26T01:16:44.016Z,1.85
2022-07-26T01:19:11.328Z,2.13
2022-07-26T01:21:38.772Z,2.22
2022-07-26T01:24:07.057Z,1.95
2022-07-26T01:26:40.133Z,2.10
2022-07-26T01:29:10.530Z,2.65
2022-07-26T01:31:38.059Z,2.42
2022-07-26T01:34:05.756Z,3.00
2022-07-26T01:36:33.520Z,2.38
2022-07-26T01:39:00.841Z,2.40
2022-07-26T01:41:38.282Z,2.38
2022-07-26T01:44:08.349Z,2.35
2022-07-26T01:46:36.039Z,2.33
2022-07-26T01:49:04.149Z,1.75
2022-07-26T01:51:39.702Z,2.15
2022-07-26T01:54:07.909Z,2.00
2022-07-26T01:56:35.641Z,2.17
2022-07-26T01:59:03.506Z,2.45
2022-07-26T02:01:37.918Z,2.63
2022-07-26T02:04:08.544Z,2.22
2022-07-26T02:06:37.312Z,2.00
2022-07-26T02:09:06.490Z,2.00
2022-07-26T02:11:34.989Z,2.17
2022-07-26T02:14:03.416Z,2.47
2022-07-26T02:16:30.801Z,2.53
2022-07-26T02:18:58.254Z,3.63
2022-07-26T02:21:25.584Z,2.60
2022-07-26T02:23:52.926Z,2.22
2022-07-26T02:26:20.270Z,3.05
2022-07-26T02:28:48.809Z,2.70
2022-07-26T02:31:16.265Z,2.67
2022-07-26T02:33:44.048Z,2.20
2022-07-26T02:36:11.367Z,2.42
2022-07-26T02:38:38.814Z,2.95
2022-07-26T02:41:06.426Z,3.13
2022-07-26T02:43:33.839Z,2.83
2022-07-26T02:46:02.482Z,2.45
2022-07-26T02:48:32.946Z,3.00
2022-07-26T02:51:00.539Z,2.40
2022-07-26T02:53:28.208Z,2.10
2022-07-26T02:55:55.561Z,2.28
2022-07-26T02:58:25.079Z,2.53
2022-07-26T03:00:52.560Z,2.70
2022-07-26T03:03:19.874Z,2.80
2022-07-26T03:05:47.231Z,2.75
2022-07-26T03:08:14.508Z,2.40
2022-07-26T03:10:41.803Z,2.55
2022-07-26T03:13:09.138Z,3.10
2022-07-26T03:15:36.629Z,3.35
2022-07-26T03:18:04.355Z,3.03
2022-07-26T03:20:31.798Z,3.08
2022-07-26T03:22:59.089Z,3.00
2022-07-26T03:25:26.430Z,2.42
2022-07-26T03:27:59.312Z,2.75
2022-07-26T03:30:26.781Z,3.53
2022-07-26T03:32:54.460Z,2.67
2022-07-26T03:35:21.948Z,3.92
2022-07-26T03:37:49.311Z,3.60
2022-07-26T03:40:17.542Z,3.95
2022-07-26T03:42:46.594Z,3.80
2022-07-26T03:45:14.997Z,3.08
2022-07-26T03:47:43.417Z,3.72
2022-07-26T03:50:11.739Z,3.25
2022-07-26T03:52:39.386Z,4.43
2022-07-26T03:55:26.268Z,3.75
2022-07-26T04:00:21.037Z,3.40
2022-07-26T04:02:48.391Z,4.00
2022-07-26T04:05:16.079Z,4.68
2022-07-26T04:07:53.118Z,3.08
2022-07-26T04:10:22.358Z,3.45
2022-07-26T04:12:50.357Z,3.83
2022-07-26T04:15:19.237Z,4.18
2022-07-26T04:17:48.552Z,4.40
2022-07-26T04:20:16.156Z,3.10
2022-07-26T04:22:43.640Z,3.20
2022-07-26T04:25:11.031Z,3.33
2022-07-26T04:27:38.685Z,4.40
2022-07-26T04:30:12.368Z,3.72
2022-07-26T04:32:43.232Z,3.72
2022-07-26T04:35:13.348Z,4.55
2022-07-26T04:37:42.898Z,3.67
2022-07-26T04:40:13.074Z,3.35
2022-07-26T04:42:40.524Z,3.75
2022-07-26T04:45:08.910Z,3.55
2022-07-26T04:47:36.685Z,3.60
2022-07-26T04:50:04.819Z,3.65
2022-07-26T04:52:32.609Z,3.45
2022-07-26T04:55:01.417Z,3.25
2022-07-26T04:57:28.726Z,2.97
2022-07-26T05:00:10.138Z,2.55
2022-07-26T05:02:43.769Z,2.80
2022-07-26T05:05:11.246Z,2.60
2022-07-26T05:07:52.308Z,2.00
2022-07-26T05:10:21.333Z,2.95
2022-07-26T05:12:49.100Z,2.55
2022-07-26T05:15:16.485Z,3.30
2022-07-26T05:17:44.079Z,2.00
2022-07-26T05:20:14.349Z,2.53
2022-07-26T05:22:42.565Z,2.75
2022-07-26T05:25:10.535Z,2.22
2022-07-26T05:27:39.145Z,2.80
2022-07-26T05:30:08.964Z,3.13
2022-07-26T05:32:36.603Z,3.65
2022-07-26T05:35:04.500Z,3.70
2022-07-26T05:37:31.901Z,3.88
2022-07-26T05:39:59.523Z,4.68
2022-07-26T05:42:27.198Z,5.05
2022-07-26T05:44:54.510Z,5.15
2022-07-26T05:47:23.429Z,3.72
2022-07-26T05:49:50.765Z,4.57
2022-07-26T05:52:18.134Z,5.68
2022-07-26T05:54:45.577Z,5.82
2022-07-26T05:57:12.873Z,5.47
2022-07-26T05:59:40.466Z,6.30
2022-07-26T06:02:08.570Z,6.00
2022-07-26T06:04:36.397Z,5.35
2022-07-26T06:07:04.072Z,5.85
2022-07-26T06:09:32.487Z,6.47
2022-07-26T06:11:59.823Z,5.47
2022-07-26T06:14:27.312Z,5.47
2022-07-26T06:16:55.729Z,5.35
2022-07-26T06:19:23.109Z,5.53
2022-07-26T06:21:50.436Z,5.20
2022-07-26T06:24:18.227Z,4.55
2022-07-26T06:26:46.641Z,4.60
2022-07-26T06:29:13.965Z,4.28
2022-07-26T06:31:41.362Z,4.35
2022-07-26T06:34:10.055Z,3.88
2022-07-26T06:36:37.747Z,4.80
2022-07-26T06:39:06.618Z,4.55
2022-07-26T06:41:40.716Z,4.70
2022-07-26T06:44:08.422Z,4.00
2022-07-26T06:46:36.314Z,4.43
2022-07-26T06:49:03.978Z,5.22
2022-07-26T06:51:33.247Z,4.93
2022-07-26T06:54:01.372Z,4.53
2022-07-26T06:56:28.712Z,5.03
2022-07-26T06:58:56.512Z,4.78
2022-07-26T07:01:57.496Z,5.25
2022-07-26T07:04:11.797Z,5.80
2022-07-26T07:06:39.604Z,7.35
2022-07-26T07:09:08.304Z,7.22
2022-07-26T07:11:36.377Z,7.72
2022-07-26T07:14:04.000Z,6.45
2022-07-26T07:16:31.624Z,7.00
2022-07-26T07:18:59.044Z,6.72
2022-07-26T07:21:27.391Z,7.38
2022-07-26T07:23:54.880Z,6.75
2022-07-26T07:26:24.232Z,6.28
2022-07-26T07:28:52.077Z,5.78
2022-07-26T07:31:25.806Z,6.15
2022-07-26T07:36:25.246Z,6.35
2022-07-26T07:38:52.525Z,7.82
2022-07-26T07:41:19.890Z,7.75
2022-07-26T07:43:47.295Z,7.78
2022-07-26T07:46:14.824Z,7.18
2022-07-26T07:48:47.412Z,7.35
2022-07-26T07:51:15.141Z,8.85
2022-07-26T07:53:43.666Z,7.80
2022-07-26T07:56:25.064Z,7.78
2022-07-26T07:58:52.474Z,8.13
2022-07-26T08:01:19.942Z,9.80
2022-07-26T08:03:50.532Z,9.65
2022-07-26T08:06:18.358Z,8.95
2022-07-26T08:08:45.689Z,8.18
2022-07-26T08:11:16.289Z,8.90
2022-07-26T08:13:47.777Z,8.10
2022-07-26T08:16:15.588Z,7.60
2022-07-26T08:18:56.191Z,8.48
2022-07-26T08:21:28.076Z,8.45
2022-07-26T08:23:57.626Z,8.50
2022-07-26T08:26:25.173Z,8.23
2022-07-26T08:28:59.418Z,9.25
2022-07-26T08:31:28.773Z,7.30
2022-07-26T08:33:56.650Z,7.43
2022-07-26T08:36:26.229Z,8.70
2022-07-26T08:38:59.198Z,7.35
2022-07-26T08:41:26.467Z,7.13
2022-07-26T08:43:54.178Z,8.30
2022-07-26T08:46:27.368Z,7.15
2022-07-26T08:48:56.500Z,7.13
2022-07-26T08:51:25.157Z,5.85
2022-07-26T08:53:59.308Z,7.47
2022-07-26T08:56:31.481Z,7.50
2022-07-26T08:58:58.769Z,6.68
2022-07-26T09:01:27.147Z,7.00
2022-07-26T09:03:54.555Z,7.38
2022-07-26T09:06:26.323Z,6.55
2022-07-26T09:09:11.360Z,8.82
2022-07-26T09:11:39.051Z,8.77
2022-07-26T09:14:06.815Z,6.10
2022-07-26T09:16:39.327Z,5.03
2022-07-26T09:19:23.631Z,5.22
2022-07-26T09:21:55.158Z,5.25
2022-07-26T09:24:37.185Z,5.85
2022-07-26T09:27:07.005Z,4.43
2022-07-26T09:29:48.307Z,4.85
2022-07-26T09:32:18.494Z,4.63
2022-07-26T09:34:52.634Z,5.07
2022-07-26T09:37:35.039Z,5.40
2022-07-26T09:40:06.246Z,4.63
2022-07-26T09:42:35.617Z,5.20
2022-07-26T09:45:04.402Z,6.30
2022-07-26T09:47:39.706Z,5.07
2022-07-26T09:50:12.100Z,5.72
2022-07-26T09:52:39.629Z,6.35
2022-07-26T09:55:09.343Z,6.40
2022-07-26T09:57:37.317Z,5.30
2022-07-26T10:00:07.875Z,5.53
2022-07-26T10:02:35.409Z,5.65
2022-07-26T10:05:02.849Z,5.07
2022-07-26T10:07:30.444Z,4.63
2022-07-26T10:10:15.124Z,4.55
2022-07-26T10:12:45.475Z,5.20
2022-07-26T10:15:38.890Z,5.53
2022-07-26T10:18:08.460Z,4.68
2022-07-26T10:20:53.845Z,5.68
2022-07-26T10:23:41.814Z,4.63
2022-07-26T10:26:11.757Z,4.97
2022-07-26T10:28:40.889Z,4.30
2022-07-26T10:31:29.958Z,5.00
2022-07-26T10:33:58.794Z,4.25
2022-07-26T10:36:34.879Z,4.80
2022-07-26T10:39:16.390Z,4.85
2022-07-26T10:41:46.514Z,4.90
2022-07-26T10:44:28.368Z,4.18
2022-07-26T10:47:01.958Z,4.75
2022-07-26T10:49:45.312Z,5.35
2022-07-26T10:52:22.203Z,4.75
2022-07-26T10:55:03.526Z,5.03
2022-07-26T10:57:40.947Z,4.68
2022-07-26T11:00:14.682Z,4.93
2022-07-26T11:02:44.045Z,4.82
2022-07-26T11:05:14.997Z,5.22
2022-07-26T11:08:08.405Z,5.10
2022-07-26T11:10:37.088Z,4.72
2022-07-26T11:13:09.000Z,5.22
2022-07-26T11:15:40.375Z,6.05
2022-07-26T11:18:13.866Z,5.20
2022-07-26T11:20:43.082Z,4.85
2022-07-26T11:23:31.557Z,4.90
2022-07-26T11:26:04.699Z,3.88
2022-07-26T11:28:43.340Z,3.35
2022-07-26T11:31:14.437Z,3.53
2022-07-26T11:33:45.424Z,3.17
2022-07-26T11:36:13.003Z,2.70
2022-07-26T11:38:54.443Z,2.58
2022-07-26T11:41:34.213Z,2.38
2022-07-26T11:44:04.928Z,2.90
2022-07-26T11:46:40.421Z,2.38
2022-07-26T11:49:25.083Z,2.22
2022-07-26T11:52:00.697Z,2.78
2022-07-26T11:54:30.712Z,2.40
2022-07-26T11:57:03.683Z,2.75
2022-07-26T11:59:33.331Z,2.60
2022-07-26T12:02:02.554Z,2.22
2022-07-26T12:04:35.214Z,2.67
2022-07-26T12:07:08.385Z,3.13
2022-07-26T12:09:38.802Z,2.28
2022-07-26T12:12:18.764Z,2.17
2022-07-26T12:15:04.390Z,2.53
2022-07-26T12:17:34.909Z,2.88
2022-07-26T12:20:14.056Z,2.90
2022-07-26T12:22:52.490Z,2.25
2022-07-26T12:25:27.978Z,2.97
2022-07-26T12:27:55.380Z,2.80
2022-07-26T12:30:23.963Z,3.08
2022-07-26T12:32:55.389Z,2.63
2022-07-26T12:35:33.525Z,3.70
2022-07-26T12:38:01.866Z,2.83
2022-07-26T12:40:30.815Z,2.78
2022-07-26T12:43:02.423Z,2.75
2022-07-26T12:45:35.122Z,3.90
2022-07-26T12:48:07.194Z,2.47
2022-07-26T12:50:34.577Z,2.60
2022-07-26T12:53:07.225Z,2.65
2022-07-26T12:55:35.673Z,2.17
2022-07-26T12:58:03.129Z,3.50
2022-07-26T13:00:30.620Z,3.63
2022-07-26T13:02:58.291Z,3.45
2022-07-26T13:05:25.912Z,3.08
2022-07-26T13:07:53.411Z,3.53
2022-07-26T13:10:36.470Z,3.35
2022-07-26T13:13:05.050Z,3.42
2022-07-26T13:15:37.424Z,3.30
2022-07-26T13:18:07.390Z,2.78
2022-07-26T13:20:37.374Z,3.33
2022-07-26T13:23:04.792Z,2.35
2022-07-26T13:25:37.002Z,2.00
2022-07-26T13:28:08.232Z,1.90
2022-07-26T13:30:39.439Z,2.10
2022-07-26T13:33:07.197Z,3.05
2022-07-26T13:35:34.703Z,3.28
2022-07-26T13:38:02.184Z,3.35
2022-07-26T13:40:31.845Z,2.45
2022-07-26T13:43:00.205Z,2.78
2022-07-26T13:45:29.042Z,3.28
2022-07-26T13:48:00.156Z,2.75
2022-07-26T13:50:28.577Z,2.70
2022-07-26T13:52:57.141Z,2.83
2022-07-26T13:55:25.691Z,2.95
2022-07-26T13:57:56.691Z,2.42
2022-07-26T14:00:27.471Z,3.50
2022-07-26T14:02:57.098Z,2.72
2022-07-26T14:05:24.906Z,3.33
2022-07-26T14:07:52.848Z,2.60
2022-07-26T14:10:21.225Z,2.97
2022-07-26T14:12:48.995Z,3.15
2022-07-26T14:15:22.103Z,2.60
2022-07-26T14:17:51.621Z,2.58
2022-07-26T14:20:19.040Z,3.28
2022-07-26T14:22:47.444Z,3.13
2022-07-26T14:25:14.942Z,3.28
2022-07-26T14:27:42.254Z,3.05
2022-07-26T14:30:09.949Z,3.35
2022-07-26T14:32:37.441Z,2.50
2022-07-26T14:35:05.499Z,2.42
2022-07-26T14:37:42.198Z,2.10
2022-07-26T14:40:13.911Z,2.28
2022-07-26T14:42:42.253Z,2.88
2022-07-26T14:45:10.107Z,2.13
2022-07-26T14:47:37.719Z,3.00
2022-07-26T14:50:07.686Z,2.35
2022-07-26T14:52:43.979Z,2.90
2022-07-26T14:55:11.773Z,2.13
2022-07-26T14:57:40.352Z,2.72
2022-07-26T15:00:16.017Z,2.28
2022-07-26T15:02:46.580Z,1.77
2022-07-26T15:05:19.505Z,2.30
2022-07-26T15:07:49.218Z,2.20
2022-07-26T15:10:17.722Z,2.42
2022-07-26T15:12:47.143Z,2.88
2022-07-26T15:15:14.561Z,2.08
2022-07-26T15:17:41.920Z,2.50
2022-07-26T15:20:18.359Z,2.08
2022-07-26T15:22:52.777Z,2.40
2022-07-26T15:25:21.318Z,1.98
2022-07-26T15:27:48.993Z,2.88
2022-07-26T15:30:17.119Z,2.05
2022-07-26T15:32:46.506Z,2.60
2022-07-26T15:35:15.112Z,2.20
2022-07-26T15:37:43.844Z,2.30
2022-07-26T15:40:12.369Z,2.03
2022-07-26T15:42:42.543Z,2.22
2022-07-26T15:45:12.143Z,2.30
2022-07-26T15:48:03.138Z,1.85
2022-07-26T15:50:27.916Z,2.45
2022-07-26T15:52:55.252Z,2.33
2022-07-26T15:55:22.780Z,2.25
2022-07-26T15:57:50.265Z,1.83
2022-07-26T16:00:18.053Z,2.10
2022-07-26T16:02:45.453Z,2.05
2022-07-26T16:05:14.123Z,3.13
2022-07-26T16:07:42.002Z,1.65
2022-07-26T16:10:12.356Z,2.00
2022-07-26T16:12:41.281Z,1.90
2022-07-26T16:15:10.249Z,1.55
2022-07-26T16:17:37.773Z,1.80
2022-07-26T16:20:06.421Z,1.70
2022-07-26T16:22:33.744Z,1.20
2022-07-26T16:25:01.050Z,1.52
2022-07-26T16:27:28.474Z,2.08
2022-07-26T16:29:55.856Z,2.28
2022-07-26T16:32:23.209Z,1.83
2022-07-26T16:34:51.049Z,1.83
2022-07-26T16:37:18.542Z,1.83
2022-07-26T16:39:45.888Z,1.83
2022-07-26T16:42:13.232Z,2.13
2022-07-26T16:44:40.610Z,1.90
2022-07-26T16:47:08.025Z,1.77
2022-07-26T16:49:35.379Z,1.65
2022-07-26T16:52:02.750Z,2.65
2022-07-26T16:54:30.946Z,2.92
2022-07-26T16:56:58.579Z,2.33
2022-07-26T16:59:26.488Z,2.67
2022-07-26T17:01:53.847Z,2.22
2022-07-26T17:04:21.754Z,3.38
2022-07-26T17:07:14.570Z,2.20
2022-07-26T17:09:37.234Z,2.88
2022-07-26T17:12:06.793Z,2.63
2022-07-26T17:14:34.384Z,2.80
2022-07-26T17:17:01.810Z,2.05
2022-07-26T17:19:29.192Z,2.25
2022-07-26T17:21:56.539Z,2.92
2022-07-26T17:24:24.736Z,2.53
2022-07-26T17:26:52.072Z,2.70
2022-07-26T17:29:19.565Z,2.17
2022-07-26T17:31:46.844Z,3.60
2022-07-26T17:34:14.242Z,2.13
2022-07-26T17:36:43.077Z,3.80
2022-07-26T17:39:15.671Z,2.78
2022-07-26T17:41:49.103Z,3.08
2022-07-26T17:44:16.508Z,2.42
2022-07-26T17:46:43.991Z,3.20
2022-07-26T17:49:12.051Z,3.20
2022-07-26T17:51:40.386Z,2.80
2022-07-26T17:54:08.382Z,2.70
2022-07-26T17:56:35.750Z,2.97
2022-07-26T17:59:03.143Z,2.83
2022-07-26T18:01:30.537Z,2.15
2022-07-26T18:03:58.019Z,2.03
2022-07-26T18:06:25.569Z,3.60
2022-07-26T18:08:52.968Z,2.20
2022-07-26T18:11:20.367Z,2.50
2022-07-26T18:13:47.719Z,2.88
2022-07-26T18:16:15.145Z,2.67
2022-07-26T18:18:43.468Z,2.38
2022-07-26T18:21:10.906Z,2.53
2022-07-26T18:23:42.882Z,2.28
2022-07-26T18:26:24.262Z,2.20
2022-07-26T18:28:53.488Z,2.53
2022-07-26T18:31:21.217Z,2.50
2022-07-26T18:33:49.213Z,2.55
2022-07-26T18:36:16.865Z,2.72
2022-07-26T18:38:44.238Z,2.55
2022-07-26T18:41:14.006Z,4.35
2022-07-26T18:43:41.670Z,2.80
2022-07-26T18:46:09.359Z,2.50
2022-07-26T18:48:37.072Z,3.13
2022-07-26T18:51:09.084Z,2.75
2022-07-26T18:53:36.461Z,2.97
2022-07-26T18:56:04.927Z,3.55
2022-07-26T18:58:32.383Z,2.65
2022-07-26T19:00:59.695Z,2.20
2022-07-26T19:03:27.170Z,2.08
2022-07-26T19:05:54.607Z,1.83
2022-07-26T19:08:22.019Z,3.53
2022-07-26T19:10:49.310Z,2.45
2022-07-26T19:13:16.665Z,2.00
2022-07-26T19:15:44.085Z,2.00
2022-07-26T19:18:16.346Z,2.20
2022-07-26T19:20:44.690Z,2.50
2022-07-26T19:23:12.286Z,2.45
2022-07-26T19:25:42.059Z,2.20
2022-07-26T19:28:09.481Z,2.85
2022-07-26T19:30:37.016Z,2.55
2022-07-26T19:33:04.427Z,2.40
2022-07-26T19:35:31.878Z,1.70
2022-07-26T19:37:59.226Z,2.97
2022-07-26T19:40:26.772Z,1.98
2022-07-26T19:42:54.194Z,2.20
2022-07-26T19:45:21.541Z,3.90
2022-07-26T19:47:49.261Z,1.80
2022-07-26T19:50:16.607Z,2.20
2022-07-26T19:52:43.893Z,2.67
2022-07-26T19:55:11.525Z,2.50
2022-07-26T19:57:39.014Z,2.92
2022-07-26T20:00:08.327Z,2.58
2022-07-26T20:02:35.803Z,2.95
2022-07-26T20:05:03.701Z,2.38
2022-07-26T20:07:31.640Z,2.70
2022-07-26T20:09:59.004Z,2.50
2022-07-26T20:12:26.364Z,2.75
2022-07-26T20:14:53.690Z,2.47
2022-07-26T20:17:33.635Z,2.63
2022-07-26T20:20:08.301Z,2.63
2022-07-26T20:22:36.739Z,3.38
2022-07-26T20:25:04.887Z,2.60
2022-07-26T20:28:06.464Z,3.80
2022-07-26T20:30:38.827Z,2.72
2022-07-26T20:33:40.948Z,2.97
2022-07-26T20:36:16.164Z,3.25
2022-07-26T20:38:48.240Z,2.97
2022-07-26T20:41:18.758Z,2.60
2022-07-26T20:43:48.594Z,3.42
2022-07-26T20:46:16.152Z,3.17
2022-07-26T20:48:46.935Z,3.30
2022-07-26T20:51:14.362Z,3.83
2022-07-26T20:53:41.860Z,3.13
2022-07-26T20:56:10.377Z,3.28
2022-07-26T20:58:37.766Z,3.38
2022-07-26T21:01:05.726Z,3.40
2022-07-26T21:03:33.222Z,3.47
2022-07-26T21:06:00.640Z,3.58
2022-07-26T21:08:28.428Z,3.53
2022-07-26T21:10:55.811Z,3.88
2022-07-26T21:13:23.830Z,3.15
2022-07-26T21:15:53.378Z,2.25
2022-07-26T21:18:21.404Z,4.35
2022-07-26T21:20:50.238Z,3.08
2022-07-26T21:23:18.540Z,3.15
2022-07-26T21:25:49.411Z,3.10
2022-07-26T21:28:25.747Z,3.03
2022-07-26T21:30:53.113Z,3.65
2022-07-26T21:33:20.534Z,2.80
2022-07-26T21:35:50.797Z,3.60
2022-07-26T21:38:18.314Z,3.35
2022-07-26T21:40:46.279Z,3.75
2022-07-26T21:43:13.911Z,2.78
2022-07-26T21:45:41.380Z,2.67
2022-07-26T21:48:09.208Z,2.75
2022-07-26T21:50:36.672Z,3.35
2022-07-26T21:53:06.115Z,3.08
2022-07-26T21:55:33.501Z,2.35
2022-07-26T21:58:00.850Z,3.10
2022-07-26T22:00:28.176Z,3.20
2022-07-26T22:02:55.601Z,3.13
2022-07-26T22:05:35.062Z,2.83
2022-07-26T22:08:03.128Z,3.10
2022-07-26T22:10:30.395Z,3.65
2022-07-26T22:12:57.696Z,3.33
2022-07-26T22:15:25.128Z,3.25
2022-07-26T22:17:55.993Z,4.07
2022-07-26T22:20:23.368Z,4.97
2022-07-26T22:22:50.647Z,3.55
2022-07-26T22:25:17.926Z,3.80
2022-07-26T22:27:45.224Z,4.20
2022-07-26T22:30:12.749Z,2.72
2022-07-26T22:32:40.580Z,4.38
2022-07-26T22:35:08.323Z,3.33
2022-07-26T22:37:35.670Z,3.28
2022-07-26T22:40:03.090Z,3.63
2022-07-26T22:42:30.404Z,3.85
2022-07-26T22:44:57.768Z,3.40
2022-07-26T22:47:25.689Z,2.70
2022-07-26T22:49:56.124Z,3.25
2022-07-26T22:52:25.532Z,4.28
2022-07-26T22:54:53.183Z,3.13
2022-07-26T22:57:20.478Z,5.68
2022-07-26T22:59:48.219Z,3.63
2022-07-26T23:02:15.513Z,3.42
2022-07-26T23:04:42.911Z,4.32
2022-07-26T23:07:11.257Z,3.90
2022-07-26T23:09:40.273Z,3.97
2022-07-26T23:12:08.351Z,3.75
2022-07-26T23:14:35.816Z,3.88
2022-07-26T23:17:03.219Z,3.65
2022-07-26T23:19:30.650Z,4.32
2022-07-26T23:21:57.937Z,3.88
2022-07-26T23:24:25.371Z,4.22
2022-07-26T23:26:52.851Z,4.15
2022-07-26T23:29:20.111Z,4.47
2022-07-26T23:31:47.587Z,4.32
2022-07-26T23:34:15.130Z,4.35
2022-07-26T23:36:42.639Z,4.20
2022-07-26T23:39:10.448Z,4.35
2022-07-26T23:41:38.043Z,4.75
2022-07-26T23:44:06.078Z,3.53
2022-07-26T23:46:33.512Z,4.53
2022-07-26T23:49:01.052Z,4.25
2022-07-26T23:51:28.410Z,3.95
2022-07-26T23:53:55.958Z,3.55
2022-07-26T23:56:23.396Z,3.65
2022-07-26T23:58:51.011Z,3.15
